Time;durP1;ratioP1;P1;durP2;ratioP2;P2;SDS_P1;SDS_P2;PMS_P1;PMS_P2;Temp;Humidity;BMP_temperature;BMP_pressure;BME280_temperature;BME280_humidity;BME280_pressure;Samples;Min_cycle;Max_cycle;Signal;HPM_P1;HPM_P2
2023/08/19 00:00:56;;;;;;;3.60;2.20;;;;;;;;;;5133428;28;20051;-60
2023/08/19 00:03:23;;;;;;;3.85;2.58;;;;;;;;;;5133246;28;20070;-60
2023/08/19 00:05:51;;;;;;;3.85;2.83;;;;;;;;;;5133096;28;20047;-59
2023/08/19 00:08:19;;;;;;;4.03;2.57;;;;;;;;;;5133068;28;20047;-59
2023/08/19 00:10:46;;;;;;;4.38;2.47;;;;;;;;;;5132866;28;20051;-60
2023/08/19 00:13:12;;;;;;;4.22;2.35;;;;;;;;;;5132844;28;20047;-60
2023/08/19 00:15:39;;;;;;;5.38;2.95;;;;;;;;;;5133266;28;20055;-60
2023/08/19 00:18:06;;;;;;;3.38;2.15;;;;;;;;;;5133220;28;20062;-60
2023/08/19 00:20:33;;;;;;;3.15;2.30;;;;;;;;;;5134119;27;20047;-60
2023/08/19 00:23:02;;;;;;;4.97;2.42;;;;;;;;;;5137347;27;20051;-60
2023/08/19 00:25:29;;;;;;;4.10;2.40;;;;;;;;;;5118055;27;20048;-60
2023/08/19 00:27:55;;;;;;;4.00;2.50;;;;;;;;;;5116215;28;20048;-60
2023/08/19 00:30:22;;;;;;;5.30;3.13;;;;;;;;;;5116449;28;20044;-60
2023/08/19 00:32:49;;;;;;;3.47;2.53;;;;;;;;;;5116118;28;20056;-60
2023/08/19 00:35:20;;;;;;;3.67;2.20;;;;;;;;;;5115988;28;20060;-60
2023/08/19 00:37:47;;;;;;;8.43;2.60;;;;;;;;;;5116462;28;20063;-60
2023/08/19 00:40:15;;;;;;;4.20;2.55;;;;;;;;;;5116212;28;20404;-60
2023/08/19 00:42:42;;;;;;;3.05;2.15;;;;;;;;;;5116356;28;20058;-60
2023/08/19 00:45:09;;;;;;;4.03;2.80;;;;;;;;;;5116104;28;20051;-61
2023/08/19 00:47:38;;;;;;;4.05;2.65;;;;;;;;;;5116074;28;20074;-60
2023/08/19 00:50:06;;;;;;;3.00;2.10;;;;;;;;;;5115809;28;20051;-59
2023/08/19 00:52:33;;;;;;;5.03;2.80;;;;;;;;;;5115950;28;20063;-60
2023/08/19 00:55:00;;;;;;;4.68;2.65;;;;;;;;;;5131072;27;20051;-59
2023/08/19 00:57:28;;;;;;;3.85;2.03;;;;;;;;;;5136630;27;20051;-60
2023/08/19 00:59:55;;;;;;;3.30;2.08;;;;;;;;;;5136443;27;20043;-61
2023/08/19 01:02:21;;;;;;;3.63;1.85;;;;;;;;;;5136503;27;20047;-60
2023/08/19 01:04:51;;;;;;;3.90;1.95;;;;;;;;;;5136423;27;20488;-60
2023/08/19 01:07:23;;;;;;;3.50;2.13;;;;;;;;;;5136295;27;20062;-60
2023/08/19 01:09:56;;;;;;;3.97;2.30;;;;;;;;;;5135690;27;20057;-60
2023/08/19 01:12:24;;;;;;;5.35;2.75;;;;;;;;;;5136149;27;20062;-60
2023/08/19 01:14:58;;;;;;;3.30;1.95;;;;;;;;;;5135913;27;20051;-60
2023/08/19 01:17:26;;;;;;;3.58;2.20;;;;;;;;;;5135679;27;20047;-60
2023/08/19 01:19:57;;;;;;;3.80;2.55;;;;;;;;;;5135439;27;20511;-59
2023/08/19 01:22:31;;;;;;;4.47;2.30;;;;;;;;;;5135633;27;20047;-59
2023/08/19 01:25:00;;;;;;;4.10;2.75;;;;;;;;;;5135817;27;20055;-59
2023/08/19 01:27:27;;;;;;;4.90;3.00;;;;;;;;;;5135402;27;20066;-60
2023/08/19 01:29:55;;;;;;;5.53;2.83;;;;;;;;;;5135494;27;20427;-59
2023/08/19 01:32:23;;;;;;;3.90;2.47;;;;;;;;;;5134360;27;20047;-59
2023/08/19 01:34:50;;;;;;;3.35;2.38;;;;;;;;;;5135217;27;20499;-59
2023/08/19 01:37:20;;;;;;;4.38;2.75;;;;;;;;;;5135622;27;20046;-60
2023/08/19 01:39:47;;;;;;;4.53;2.30;;;;;;;;;;5135227;27;20051;-60
2023/08/19 01:42:22;;;;;;;5.32;2.80;;;;;;;;;;5135502;27;20051;-60
2023/08/19 01:44:50;;;;;;;3.08;2.28;;;;;;;;;;5135068;27;20062;-60
2023/08/19 01:47:17;;;;;;;3.97;2.70;;;;;;;;;;5135254;27;20388;-59
2023/08/19 01:49:44;;;;;;;4.55;2.65;;;;;;;;;;5135060;27;20054;-59
2023/08/19 01:52:12;;;;;;;4.22;2.22;;;;;;;;;;5135317;27;20404;-59
2023/08/19 01:54:39;;;;;;;3.35;2.40;;;;;;;;;;5135060;27;20050;-60
2023/08/19 01:57:06;;;;;;;6.18;2.80;;;;;;;;;;5135068;27;20483;-59
2023/08/19 01:59:34;;;;;;;4.68;2.67;;;;;;;;;;5134947;27;20043;-60
2023/08/19 02:02:01;;;;;;;5.72;2.63;;;;;;;;;;5134784;27;20058;-60
2023/08/19 02:04:28;;;;;;;7.63;2.70;;;;;;;;;;5134939;27;20467;-59
2023/08/19 02:06:55;;;;;;;4.18;2.63;;;;;;;;;;5134904;27;20051;-59
2023/08/19 02:09:21;;;;;;;5.13;2.20;;;;;;;;;;5134561;27;20059;-60
2023/08/19 02:11:48;;;;;;;4.15;2.17;;;;;;;;;;5134894;27;20055;-59
2023/08/19 02:14:15;;;;;;;4.88;2.40;;;;;;;;;;5134642;27;20055;-60
2023/08/19 02:19:41;;;;;;;7.03;2.80;;;;;;;;;;5132085;27;20055;-59
2023/08/19 02:22:08;;;;;;;4.47;2.70;;;;;;;;;;5134852;27;20047;-58
2023/08/19 02:24:35;;;;;;;4.88;3.05;;;;;;;;;;5134567;27;20047;-59
2023/08/19 02:27:02;;;;;;;6.85;3.17;;;;;;;;;;5134709;27;20058;-59
2023/08/19 02:29:29;;;;;;;4.43;2.53;;;;;;;;;;5134014;27;20054;-59
2023/08/19 02:31:56;;;;;;;4.40;2.15;;;;;;;;;;5134336;27;20055;-59
2023/08/19 02:34:23;;;;;;;4.68;2.55;;;;;;;;;;5134389;27;20062;-60
2023/08/19 02:36:51;;;;;;;3.72;2.85;;;;;;;;;;5134533;27;20059;-60
2023/08/19 02:39:18;;;;;;;3.88;2.90;;;;;;;;;;5134295;27;20051;-59
2023/08/19 02:41:45;;;;;;;5.38;2.40;;;;;;;;;;5134215;27;20055;-59
2023/08/19 02:44:11;;;;;;;4.85;2.20;;;;;;;;;;5134232;27;20047;-60
2023/08/19 02:46:38;;;;;;;3.92;2.63;;;;;;;;;;5134455;27;20055;-60
2023/08/19 02:49:05;;;;;;;5.15;2.72;;;;;;;;;;5134242;27;20053;-60
2023/08/19 02:51:32;;;;;;;3.65;2.17;;;;;;;;;;5133696;27;20051;-60
2023/08/19 02:54:00;;;;;;;3.88;2.22;;;;;;;;;;5134151;27;20484;-59
2023/08/19 02:56:27;;;;;;;4.05;2.20;;;;;;;;;;5134452;27;20058;-59
2023/08/19 02:58:54;;;;;;;3.55;2.60;;;;;;;;;;5134178;27;20055;-60
2023/08/19 03:01:20;;;;;;;4.53;2.42;;;;;;;;;;5133667;27;20172;-60
2023/08/19 03:03:47;;;;;;;4.25;2.75;;;;;;;;;;5133705;27;20051;-60
2023/08/19 03:06:14;;;;;;;4.68;2.42;;;;;;;;;;5134004;27;20050;-59
2023/08/19 03:08:41;;;;;;;2.97;1.88;;;;;;;;;;5133933;27;20058;-59
2023/08/19 03:11:09;;;;;;;5.03;2.42;;;;;;;;;;5133923;27;20039;-59
2023/08/19 03:13:36;;;;;;;3.77;2.27;;;;;;;;;;5133857;27;20411;-59
2023/08/19 03:16:03;;;;;;;5.18;2.50;;;;;;;;;;5133748;27;20495;-59
2023/08/19 03:18:30;;;;;;;4.28;2.30;;;;;;;;;;5133439;27;20055;-59
2023/08/19 03:20:59;;;;;;;4.13;2.70;;;;;;;;;;5133786;27;20051;-59
2023/08/19 03:23:27;;;;;;;3.38;2.50;;;;;;;;;;5133609;27;20407;-59
2023/08/19 03:25:55;;;;;;;5.35;2.95;;;;;;;;;;5133668;27;20062;-60
2023/08/19 03:28:23;;;;;;;15.50;2.67;;;;;;;;;;5133577;27;20058;-59
2023/08/19 03:30:52;;;;;;;3.08;2.50;;;;;;;;;;5133505;27;20047;-60
2023/08/19 03:33:20;;;;;;;4.15;2.40;;;;;;;;;;5133381;27;20058;-59
2023/08/19 03:35:46;;;;;;;4.70;2.50;;;;;;;;;;5133231;27;20074;-60
2023/08/19 03:38:14;;;;;;;3.97;2.53;;;;;;;;;;5132894;27;20054;-60
2023/08/19 03:40:40;;;;;;;3.67;2.20;;;;;;;;;;5133095;27;20371;-59
2023/08/19 03:43:12;;;;;;;3.70;1.95;;;;;;;;;;5132873;27;20055;-59
2023/08/19 03:45:40;;;;;;;4.28;2.20;;;;;;;;;;5133225;27;20051;-60
2023/08/19 03:48:07;;;;;;;5.03;2.70;;;;;;;;;;5133129;27;20055;-59
2023/08/19 03:50:33;;;;;;;4.70;2.38;;;;;;;;;;5133143;27;20047;-60
2023/08/19 03:53:03;;;;;;;3.08;2.10;;;;;;;;;;5133264;28;20051;-60
2023/08/19 03:55:52;;;;;;;2.78;1.88;;;;;;;;;;5135158;27;20058;-59
2023/08/19 03:58:22;;;;;;;3.28;2.13;;;;;;;;;;5139946;27;20503;-59
2023/08/19 04:00:50;;;;;;;3.22;2.22;;;;;;;;;;5140126;27;20054;-60
2023/08/19 04:03:17;;;;;;;4.57;2.47;;;;;;;;;;5140113;27;20054;-60
2023/08/19 04:05:44;;;;;;;4.25;2.47;;;;;;;;;;5140000;27;20050;-59
2023/08/19 04:08:11;;;;;;;3.30;2.22;;;;;;;;;;5140042;27;20384;-59
2023/08/19 04:10:38;;;;;;;4.47;2.45;;;;;;;;;;5139382;27;20047;-59
2023/08/19 04:13:05;;;;;;;4.32;2.42;;;;;;;;;;5139628;27;20051;-59
2023/08/19 04:15:33;;;;;;;3.45;2.75;;;;;;;;;;5139994;27;20051;-59
2023/08/19 04:18:01;;;;;;;4.07;1.92;;;;;;;;;;5139989;27;20058;-59
2023/08/19 04:20:28;;;;;;;3.05;1.83;;;;;;;;;;5139907;27;20051;-59
2023/08/19 04:22:55;;;;;;;3.55;2.17;;;;;;;;;;5139859;27;20403;-60
2023/08/19 04:25:22;;;;;;;3.08;2.30;;;;;;;;;;5139672;27;20055;-59
2023/08/19 04:27:49;;;;;;;11.55;2.95;;;;;;;;;;5139530;27;20054;-60
2023/08/19 04:30:15;;;;;;;4.60;2.22;;;;;;;;;;5139834;27;20062;-60
2023/08/19 04:32:42;;;;;;;4.25;2.10;;;;;;;;;;5139251;27;20051;-60
2023/08/19 04:35:12;;;;;;;3.10;2.08;;;;;;;;;;5139283;27;20054;-60
2023/08/19 04:37:40;;;;;;;4.03;2.70;;;;;;;;;;5139555;27;20412;-60
2023/08/19 04:40:09;;;;;;;5.20;2.28;;;;;;;;;;5139601;27;20047;-60
2023/08/19 04:42:36;;;;;;;3.75;2.05;;;;;;;;;;5139712;27;20514;-59
2023/08/19 04:45:06;;;;;;;6.90;2.67;;;;;;;;;;5139666;27;20059;-59
2023/08/19 04:47:33;;;;;;;6.28;2.22;;;;;;;;;;5139527;27;20064;-60
2023/08/19 04:50:00;;;;;;;5.13;2.03;;;;;;;;;;5139264;27;20058;-59
2023/08/19 04:52:28;;;;;;;3.28;2.50;;;;;;;;;;5139475;27;20054;-59
2023/08/19 04:54:54;;;;;;;4.18;2.33;;;;;;;;;;5139525;27;20047;-59
2023/08/19 04:57:21;;;;;;;3.33;2.22;;;;;;;;;;5139299;27;20055;-59
2023/08/19 04:59:48;;;;;;;3.45;2.42;;;;;;;;;;5139257;27;20054;-59
2023/08/19 05:02:15;;;;;;;2.92;2.15;;;;;;;;;;5139228;27;20043;-59
2023/08/19 05:04:42;;;;;;;3.38;2.05;;;;;;;;;;5138959;27;20058;-60
2023/08/19 05:07:08;;;;;;;7.20;2.13;;;;;;;;;;5136569;27;20055;-60
2023/08/19 05:09:37;;;;;;;3.78;2.35;;;;;;;;;;5135942;27;20043;-60
2023/08/19 05:12:03;;;;;;;4.82;2.85;;;;;;;;;;5135808;27;20054;-59
2023/08/19 05:14:30;;;;;;;4.20;2.88;;;;;;;;;;5135926;27;20150;-60
2023/08/19 05:16:57;;;;;;;4.35;2.30;;;;;;;;;;5135874;27;20411;-60
2023/08/19 05:19:24;;;;;;;5.88;2.65;;;;;;;;;;5135727;27;20078;-60
2023/08/19 05:21:51;;;;;;;3.65;2.40;;;;;;;;;;5135663;27;20051;-60
2023/08/19 05:24:19;;;;;;;3.83;2.30;;;;;;;;;;5135650;27;20480;-60
2023/08/19 05:26:47;;;;;;;3.55;2.15;;;;;;;;;;5135292;27;20054;-59
2023/08/19 05:29:16;;;;;;;4.43;2.38;;;;;;;;;;5135576;27;20085;-59
2023/08/19 05:31:42;;;;;;;3.72;2.20;;;;;;;;;;5135351;27;20051;-60
2023/08/19 05:34:09;;;;;;;4.13;2.10;;;;;;;;;;5135490;27;20496;-58
2023/08/19 05:36:36;;;;;;;3.97;2.47;;;;;;;;;;5135190;27;20051;-59
2023/08/19 05:39:03;;;;;;;4.32;2.22;;;;;;;;;;5135582;27;20062;-59
2023/08/19 05:41:30;;;;;;;3.63;2.17;;;;;;;;;;5135592;27;20428;-60
2023/08/19 05:43:58;;;;;;;4.70;2.15;;;;;;;;;;5135029;27;20046;-59
2023/08/19 05:46:25;;;;;;;3.13;2.38;;;;;;;;;;5135379;27;20403;-59
2023/08/19 05:48:52;;;;;;;4.93;2.17;;;;;;;;;;5134991;27;20055;-59
2023/08/19 05:51:19;;;;;;;4.40;2.35;;;;;;;;;;5134863;27;20495;-60
2023/08/19 05:59:53;;;;;;;3.55;1.48;;;;;;;;;;5135251;27;20023;-60
2023/08/19 06:02:20;;;;;;;4.93;2.85;;;;;;;;;;5134780;27;20043;-60
2023/08/19 06:04:47;;;;;;;7.15;2.17;;;;;;;;;;5135059;27;20476;-60
2023/08/19 06:07:15;;;;;;;5.18;2.40;;;;;;;;;;5134582;27;20055;-60
2023/08/19 06:09:41;;;;;;;4.15;2.40;;;;;;;;;;5134973;27;20055;-60
2023/08/19 06:12:08;;;;;;;3.85;1.85;;;;;;;;;;5134870;27;20050;-60
2023/08/19 06:14:35;;;;;;;3.80;2.20;;;;;;;;;;5134876;27;20480;-59
2023/08/19 06:17:04;;;;;;;4.47;2.42;;;;;;;;;;5134653;27;20051;-60
2023/08/19 06:19:30;;;;;;;3.27;2.00;;;;;;;;;;5134235;27;20051;-60
2023/08/19 06:21:57;;;;;;;2.60;1.75;;;;;;;;;;5134336;27;20043;-59
2023/08/19 06:24:24;;;;;;;3.58;1.98;;;;;;;;;;5134425;27;20063;-60
2023/08/19 06:26:51;;;;;;;3.00;1.98;;;;;;;;;;5134739;27;20066;-59
2023/08/19 06:29:17;;;;;;;4.70;2.30;;;;;;;;;;5134587;27;20502;-59
2023/08/19 06:31:45;;;;;;;3.50;1.60;;;;;;;;;;5134311;27;20110;-60
2023/08/19 06:34:13;;;;;;;5.53;2.08;;;;;;;;;;5134142;27;20054;-59
2023/08/19 06:36:43;;;;;;;2.95;1.80;;;;;;;;;;5134078;27;20055;-60
2023/08/19 06:39:18;;;;;;;2.38;1.65;;;;;;;;;;5134126;27;20065;-59
2023/08/19 06:41:47;;;;;;;2.70;1.80;;;;;;;;;;5134108;27;20054;-59
2023/08/19 06:44:13;;;;;;;;;;;;;;;;;;5134701;27;20479;-60
2023/08/19 06:46:42;;;;;;;2.65;1.70;;;;;;;;;;5134219;27;19919;-60
2023/08/19 06:49:09;;;;;;;3.40;1.98;;;;;;;;;;5134046;27;20062;-59
2023/08/19 06:51:38;;;;;;;3.22;1.90;;;;;;;;;;5133822;27;20411;-59
2023/08/19 06:54:05;;;;;;;2.60;1.70;;;;;;;;;;5133644;27;20043;-60
2023/08/19 06:56:33;;;;;;;2.42;1.52;;;;;;;;;;5133817;27;20059;-59
2023/08/19 06:59:02;;;;;;;2.60;2.05;;;;;;;;;;5134194;27;20051;-59
2023/08/19 07:01:31;;;;;;;2.78;1.85;;;;;;;;;;5133854;27;20051;-60
2023/08/19 07:03:58;;;;;;;3.03;1.90;;;;;;;;;;5133966;27;20506;-59
2023/08/19 07:06:26;;;;;;;3.72;2.20;;;;;;;;;;5133912;27;20484;-59
2023/08/19 07:08:55;;;;;;;2.47;1.75;;;;;;;;;;5133624;27;20059;-58
2023/08/19 07:11:22;;;;;;;;;;;;;;;;;;5134411;27;20051;-60
2023/08/19 07:13:49;;;;;;;2.35;1.75;;;;;;;;;;5133720;27;19919;-59
2023/08/19 07:16:18;;;;;;;2.92;1.80;;;;;;;;;;5133853;27;20077;-60
2023/08/19 07:18:47;;;;;;;2.95;1.83;;;;;;;;;;5133500;27;20139;-59
2023/08/19 07:21:14;;;;;;;1.95;1.73;;;;;;;;;;5133720;27;20047;-59
2023/08/19 07:23:45;;;;;;;2.17;1.35;;;;;;;;;;5133640;27;20047;-60
2023/08/19 07:26:13;;;;;;;2.58;1.20;;;;;;;;;;5133641;27;20058;-59
2023/08/19 07:28:40;;;;;;;2.97;1.90;;;;;;;;;;5133261;27;20433;-59
2023/08/19 07:31:10;;;;;;;2.67;1.42;;;;;;;;;;5132958;27;20494;-59
2023/08/19 07:33:37;;;;;;;3.03;1.38;;;;;;;;;;5133030;27;20062;-59
2023/08/19 07:36:04;;;;;;;2.50;1.75;;;;;;;;;;5132572;27;20522;-59
2023/08/19 07:38:31;;;;;;;2.75;1.35;;;;;;;;;;5132866;27;20050;-59
2023/08/19 07:40:57;;;;;;;2.53;1.63;;;;;;;;;;5133155;27;20047;-59
2023/08/19 07:43:26;;;;;;;3.58;1.40;;;;;;;;;;5133078;27;20051;-59
2023/08/19 07:45:52;;;;;;;1.88;1.27;;;;;;;;;;5132813;27;20348;-60
2023/08/19 07:48:19;;;;;;;5.15;1.73;;;;;;;;;;5132706;27;20063;-59
2023/08/19 07:50:46;;;;;;;2.30;1.40;;;;;;;;;;5132621;27;20059;-60
2023/08/19 07:53:13;;;;;;;3.22;1.65;;;;;;;;;;5132572;27;20412;-59
2023/08/19 07:55:41;;;;;;;2.95;1.40;;;;;;;;;;5133028;28;20051;-60
2023/08/19 07:58:08;;;;;;;2.13;1.20;;;;;;;;;;5133106;28;20515;-60
2023/08/19 08:00:36;;;;;;;2.70;1.50;;;;;;;;;;5132958;28;20051;-60
2023/08/19 08:03:03;;;;;;;;;;;;;;;;;;5132944;28;20043;-60
2023/08/19 08:05:30;;;;;;;2.53;1.70;;;;;;;;;;5132581;28;20339;-60
2023/08/19 08:07:57;;;;;;;3.08;1.50;;;;;;;;;;5132563;28;20055;-60
2023/08/19 08:10:24;;;;;;;2.72;1.27;;;;;;;;;;5132751;28;20062;-60
2023/08/19 08:12:51;;;;;;;2.35;1.27;;;;;;;;;;5132428;28;20404;-60
2023/08/19 08:15:18;;;;;;;2.22;1.45;;;;;;;;;;5132601;28;20051;-59
2023/08/19 08:17:46;;;;;;;3.92;1.55;;;;;;;;;;5132675;28;20055;-59
2023/08/19 08:20:13;;;;;;;3.78;1.58;;;;;;;;;;5132674;28;20047;-59
2023/08/19 08:22:40;;;;;;;2.50;1.30;;;;;;;;;;5132162;28;20054;-59
2023/08/19 08:25:09;;;;;;;3.78;1.60;;;;;;;;;;5132631;28;20062;-60
2023/08/19 08:27:36;;;;;;;;;;;;;;;;;;5133094;28;20052;-59
2023/08/19 08:30:02;;;;;;;1.73;1.05;;;;;;;;;;5132916;28;20291;-60
2023/08/19 08:32:29;;;;;;;2.42;1.55;;;;;;;;;;5132701;28;20059;-59
2023/08/19 08:34:58;;;;;;;2.17;1.45;;;;;;;;;;5132404;28;20059;-59
2023/08/19 08:37:26;;;;;;;5.25;1.10;;;;;;;;;;5132468;28;20121;-59
2023/08/19 08:39:52;;;;;;;2.40;1.30;;;;;;;;;;5132445;28;20411;-61
2023/08/19 08:42:20;;;;;;;1.83;1.10;;;;;;;;;;5134846;27;20055;-60
2023/08/19 08:44:47;;;;;;;2.58;1.17;;;;;;;;;;5136666;27;20051;-60
2023/08/19 08:47:15;;;;;;;4.82;1.40;;;;;;;;;;5136544;27;20058;-60
2023/08/19 08:49:44;;;;;;;4.20;1.77;;;;;;;;;;5136443;27;20376;-60
2023/08/19 08:52:12;;;;;;;5.78;1.50;;;;;;;;;;5136737;27;20047;-61
2023/08/19 08:54:40;;;;;;;2.38;1.15;;;;;;;;;;5136002;27;20412;-59
2023/08/19 08:57:07;;;;;;;3.13;1.20;;;;;;;;;;5136243;27;20047;-59
2023/08/19 08:59:34;;;;;;;2.85;1.40;;;;;;;;;;5136066;27;20407;-59
2023/08/19 09:02:01;;;;;;;3.28;1.35;;;;;;;;;;5135901;27;20051;-60
2023/08/19 09:04:29;;;;;;;2.58;1.10;;;;;;;;;;5135994;27;20046;-60
2023/08/19 09:06:58;;;;;;;2.25;1.20;;;;;;;;;;5135874;27;20403;-60
2023/08/19 09:09:30;;;;;;;2.90;1.27;;;;;;;;;;5136274;27;20055;-60
2023/08/19 09:11:58;;;;;;;2.13;1.40;;;;;;;;;;5136159;27;20055;-60
2023/08/19 09:14:32;;;;;;;1.42;0.90;;;;;;;;;;5135948;27;20058;-60
2023/08/19 09:16:59;;;;;;;2.30;1.60;;;;;;;;;;5135779;27;20051;-60
2023/08/19 09:19:26;;;;;;;2.47;1.20;;;;;;;;;;5135940;27;20062;-61
2023/08/19 09:21:52;;;;;;;1.52;1.13;;;;;;;;;;5136050;27;20058;-61
2023/08/19 09:24:20;;;;;;;1.92;1.20;;;;;;;;;;5136009;27;20070;-59
2023/08/19 09:26:49;;;;;;;2.95;1.30;;;;;;;;;;5135380;27;20420;-59
2023/08/19 09:29:16;;;;;;;2.53;1.00;;;;;;;;;;5136030;27;20062;-60
2023/08/19 09:31:43;;;;;;;2.50;1.38;;;;;;;;;;5135830;27;20066;-60
2023/08/19 09:34:09;;;;;;;2.40;1.30;;;;;;;;;;5135506;27;20050;-60
2023/08/19 09:36:36;;;;;;;1.75;1.33;;;;;;;;;;5135214;27;20415;-60
2023/08/19 09:39:03;;;;;;;1.92;1.15;;;;;;;;;;5135370;27;20047;-60
2023/08/19 09:41:30;;;;;;;3.38;1.67;;;;;;;;;;5135641;27;20055;-60
2023/08/19 09:43:59;;;;;;;2.95;1.30;;;;;;;;;;5135762;27;20055;-60
2023/08/19 09:46:35;;;;;;;1.77;1.17;;;;;;;;;;5136139;27;20055;-59
2023/08/19 09:49:03;;;;;;;6.05;1.35;;;;;;;;;;5135680;27;20058;-60
2023/08/19 09:51:31;;;;;;;4.10;1.73;;;;;;;;;;5135129;27;20061;-60
2023/08/19 09:54:08;;;;;;;1.60;1.15;;;;;;;;;;5134532;27;20051;-60
2023/08/19 09:56:35;;;;;;;3.05;1.65;;;;;;;;;;5135451;27;20054;-60
2023/08/19 09:59:03;;;;;;;1.90;1.10;;;;;;;;;;5135323;27;20062;-60
2023/08/19 10:01:31;;;;;;;2.38;1.20;;;;;;;;;;5134629;27;20055;-59
2023/08/19 10:03:58;;;;;;;2.15;1.17;;;;;;;;;;5134889;27;20054;-59
2023/08/19 10:06:25;;;;;;;1.95;1.27;;;;;;;;;;5135189;27;20051;-60
2023/08/19 10:08:56;;;;;;;1.60;1.10;;;;;;;;;;5134707;27;20055;-59
2023/08/19 10:11:23;;;;;;;2.15;1.30;;;;;;;;;;5135198;27;20054;-59
2023/08/19 10:13:52;;;;;;;4.63;1.25;;;;;;;;;;5134557;27;20058;-59
2023/08/19 10:16:24;;;;;;;2.95;1.48;;;;;;;;;;5135028;27;20062;-59
2023/08/19 10:18:52;;;;;;;2.72;1.35;;;;;;;;;;5134594;27;20415;-59
2023/08/19 10:21:18;;;;;;;;;;;;;;;;;;5135524;27;20051;-60
2023/08/19 10:23:46;;;;;;;1.83;1.02;;;;;;;;;;5134920;27;19919;-60
2023/08/19 10:26:15;;;;;;;2.40;1.23;;;;;;;;;;5135035;27;20047;-61
2023/08/19 10:28:42;;;;;;;1.63;1.30;;;;;;;;;;5134393;27;20051;-60
2023/08/19 10:31:10;;;;;;;2.00;1.10;;;;;;;;;;5134813;27;20055;-60
2023/08/19 10:33:42;;;;;;;2.10;1.00;;;;;;;;;;5134383;27;20513;-61
2023/08/19 10:36:10;;;;;;;1.90;1.15;;;;;;;;;;5134163;27;20511;-61
2023/08/19 10:38:43;;;;;;;2.00;1.15;;;;;;;;;;5134229;27;20050;-61
2023/08/19 10:41:26;;;;;;;1.58;1.17;;;;;;;;;;5134740;27;20055;-63
2023/08/19 10:44:01;;;;;;;2.25;1.35;;;;;;;;;;5134584;27;20472;-61
2023/08/19 10:46:28;;;;;;;3.58;1.45;;;;;;;;;;5134410;27;20092;-61
2023/08/19 10:48:56;;;;;;;2.45;1.33;;;;;;;;;;5134315;27;20435;-62
2023/08/19 10:51:23;;;;;;;;;;;;;;;;;;5135078;27;20062;-61
2023/08/19 10:53:50;;;;;;;2.42;1.48;;;;;;;;;;5134111;27;20287;-61
2023/08/19 10:56:20;;;;;;;4.28;2.10;;;;;;;;;;5134449;27;20051;-61
2023/08/19 10:58:49;;;;;;;1.67;1.35;;;;;;;;;;5133848;27;20058;-61
2023/08/19 11:01:16;;;;;;;2.97;1.58;;;;;;;;;;5134317;27;20055;-61
2023/08/19 11:03:42;;;;;;;3.75;2.05;;;;;;;;;;5133960;27;20051;-61
2023/08/19 11:06:11;;;;;;;4.90;2.35;;;;;;;;;;5133167;27;20047;-61
2023/08/19 11:08:44;;;;;;;2.35;1.55;;;;;;;;;;5133834;27;20058;-61
2023/08/19 11:11:14;;;;;;;3.35;1.45;;;;;;;;;;5133978;27;20404;-60
2023/08/19 11:13:55;;;;;;;2.75;1.80;;;;;;;;;;5133428;27;20047;-60
2023/08/19 11:16:27;;;;;;;3.50;1.50;;;;;;;;;;5133683;27;20418;-60
2023/08/19 11:18:56;;;;;;;2.13;1.20;;;;;;;;;;5133372;27;20406;-61
2023/08/19 11:21:25;;;;;;;2.85;1.83;;;;;;;;;;5133667;27;20051;-61
2023/08/19 11:23:54;;;;;;;2.97;2.13;;;;;;;;;;5133438;27;20058;-61
2023/08/19 11:26:22;;;;;;;2.33;1.38;;;;;;;;;;5133865;27;20395;-61
2023/08/19 11:28:49;;;;;;;1.92;1.20;;;;;;;;;;5133368;27;20055;-61
2023/08/19 11:31:17;;;;;;;1.77;1.02;;;;;;;;;;5133872;27;20469;-61
2023/08/19 11:33:43;;;;;;;2.80;1.17;;;;;;;;;;5133580;27;20047;-61
2023/08/19 11:36:10;;;;;;;1.40;1.05;;;;;;;;;;5133196;27;20055;-61
2023/08/19 11:38:39;;;;;;;1.92;1.33;;;;;;;;;;5133560;27;20398;-60
2023/08/19 11:41:06;;;;;;;3.40;1.40;;;;;;;;;;5133665;27;20051;-61
2023/08/19 11:43:42;;;;;;;2.97;1.50;;;;;;;;;;5133126;27;20070;-61
2023/08/19 11:46:09;;;;;;;3.10;1.40;;;;;;;;;;5132835;27;20062;-61
2023/08/19 11:48:36;;;;;;;2.13;1.30;;;;;;;;;;5132995;27;20490;-61
2023/08/19 11:51:09;;;;;;;2.33;1.58;;;;;;;;;;5133431;27;20062;-60
2023/08/19 11:53:36;;;;;;;1.67;1.05;;;;;;;;;;5133129;27;20057;-62
2023/08/19 11:56:04;;;;;;;2.28;1.52;;;;;;;;;;5133349;28;20051;-61
2023/08/19 11:58:38;;;;;;;4.18;1.40;;;;;;;;;;5133325;28;20502;-62
2023/08/19 12:01:05;;;;;;;1.80;1.33;;;;;;;;;;5133378;28;20475;-61
2023/08/19 12:03:32;;;;;;;2.72;1.67;;;;;;;;;;5133279;28;20067;-61
2023/08/19 12:06:05;;;;;;;2.08;1.17;;;;;;;;;;5132938;28;20058;-60
2023/08/19 12:08:33;;;;;;;2.08;1.55;;;;;;;;;;5132878;28;20051;-60
2023/08/19 12:11:00;;;;;;;2.60;1.40;;;;;;;;;;5133256;28;20059;-61
2023/08/19 12:13:31;;;;;;;3.55;1.30;;;;;;;;;;5133225;28;20554;-61
2023/08/19 12:16:02;;;;;;;3.08;1.63;;;;;;;;;;5133349;27;20047;-62
2023/08/19 12:18:32;;;;;;;3.45;1.20;;;;;;;;;;5137214;27;20051;-61
2023/08/19 12:20:59;;;;;;;2.78;1.60;;;;;;;;;;5137368;27;20055;-61
2023/08/19 12:23:26;;;;;;;2.47;1.38;;;;;;;;;;5136991;27;20055;-61
2023/08/19 12:25:56;;;;;;;2.20;1.70;;;;;;;;;;5137318;27;20051;-61
2023/08/19 12:28:28;;;;;;;1.95;1.20;;;;;;;;;;5136712;27;20051;-61
2023/08/19 12:30:59;;;;;;;2.33;1.60;;;;;;;;;;5136579;27;20074;-61
2023/08/19 12:33:27;;;;;;;3.78;1.55;;;;;;;;;;5137314;27;20051;-60
2023/08/19 12:35:55;;;;;;;3.45;1.52;;;;;;;;;;5136386;27;20051;-61
2023/08/19 12:38:22;;;;;;;3.30;2.17;;;;;;;;;;5136885;27;20058;-61
2023/08/19 12:40:49;;;;;;;3.47;1.80;;;;;;;;;;5136986;27;20059;-61
2023/08/19 12:43:18;;;;;;;3.13;1.95;;;;;;;;;;5136775;27;20504;-61
2023/08/19 12:45:49;;;;;;;4.32;1.63;;;;;;;;;;5113591;27;20059;-60
2023/08/19 12:48:17;;;;;;;4.03;1.85;;;;;;;;;;5115757;28;20058;-60
2023/08/19 12:50:44;;;;;;;4.00;1.98;;;;;;;;;;5115997;28;20055;-61
2023/08/19 12:53:11;;;;;;;2.97;2.20;;;;;;;;;;5115682;28;20063;-61
2023/08/19 12:55:37;;;;;;;3.33;2.15;;;;;;;;;;5115731;28;20398;-60
2023/08/19 12:58:05;;;;;;;3.22;1.77;;;;;;;;;;5115420;28;20051;-60
2023/08/19 13:00:32;;;;;;;2.10;1.73;;;;;;;;;;5115478;28;20063;-60
2023/08/19 13:03:02;;;;;;;3.30;2.03;;;;;;;;;;5115712;28;20070;-60
2023/08/19 13:05:30;;;;;;;3.97;2.30;;;;;;;;;;5107230;28;20432;-60
2023/08/19 13:08:00;;;;;;;2.97;2.00;;;;;;;;;;5115477;28;20048;-60
2023/08/19 13:10:26;;;;;;;4.20;2.90;;;;;;;;;;5107504;28;20058;-60
2023/08/19 13:12:54;;;;;;;4.28;2.17;;;;;;;;;;5115614;28;20424;-60
2023/08/19 13:15:21;;;;;;;3.42;2.20;;;;;;;;;;5106899;28;20044;-60
2023/08/19 13:17:50;;;;;;;3.40;2.05;;;;;;;;;;5115346;28;20048;-60
2023/08/19 13:20:20;;;;;;;3.42;2.20;;;;;;;;;;5107080;28;20055;-60
2023/08/19 13:22:49;;;;;;;3.95;2.20;;;;;;;;;;5115715;28;20066;-60
2023/08/19 13:25:16;;;;;;;3.22;1.80;;;;;;;;;;5106846;28;20055;-59
2023/08/19 13:27:45;;;;;;;3.20;2.38;;;;;;;;;;5135282;27;20051;-61
2023/08/19 13:30:13;;;;;;;2.80;2.15;;;;;;;;;;5135295;27;20050;-60
2023/08/19 13:32:43;;;;;;;4.45;2.45;;;;;;;;;;5135628;27;20055;-61
2023/08/19 13:35:10;;;;;;;3.30;2.45;;;;;;;;;;5135175;27;20055;-60
2023/08/19 13:37:37;;;;;;;3.45;2.63;;;;;;;;;;5135473;27;20058;-62
2023/08/19 13:40:06;;;;;;;3.35;2.20;;;;;;;;;;5135541;27;20388;-60
2023/08/19 13:42:33;;;;;;;3.63;2.10;;;;;;;;;;5135436;27;20404;-60
2023/08/19 13:44:59;;;;;;;6.45;2.33;;;;;;;;;;5135561;27;20490;-60
2023/08/19 13:47:27;;;;;;;2.70;2.17;;;;;;;;;;5135305;27;20057;-60
2023/08/19 13:49:54;;;;;;;3.50;2.67;;;;;;;;;;5134210;27;20051;-61
2023/08/19 13:52:36;;;;;;;3.78;2.67;;;;;;;;;;5134991;27;20047;-61
2023/08/19 13:55:06;;;;;;;4.82;3.13;;;;;;;;;;5134786;27;20050;-60
2023/08/19 13:57:33;;;;;;;3.58;2.30;;;;;;;;;;5134784;27;20058;-60
2023/08/19 14:00:00;;;;;;;4.38;2.90;;;;;;;;;;5135271;27;20059;-60
2023/08/19 14:02:27;;;;;;;4.10;2.65;;;;;;;;;;5135151;27;20051;-60
2023/08/19 14:04:55;;;;;;;4.25;2.40;;;;;;;;;;5134962;27;20054;-60
2023/08/19 14:07:22;;;;;;;4.75;3.10;;;;;;;;;;5135047;27;20523;-60
2023/08/19 14:09:49;;;;;;;4.38;2.30;;;;;;;;;;5134684;27;20442;-60
2023/08/19 14:12:18;;;;;;;4.05;2.35;;;;;;;;;;5134671;27;20054;-60
2023/08/19 14:14:45;;;;;;;5.43;2.85;;;;;;;;;;5134539;27;20043;-60
2023/08/19 14:17:14;;;;;;;3.67;2.88;;;;;;;;;;5134854;27;20058;-60
2023/08/19 14:19:40;;;;;;;6.53;2.45;;;;;;;;;;5134711;27;20488;-59
2023/08/19 14:22:07;;;;;;;4.88;2.97;;;;;;;;;;5134956;27;20058;-60
2023/08/19 14:24:34;;;;;;;3.50;2.55;;;;;;;;;;5134516;27;20051;-60
2023/08/19 14:27:04;;;;;;;3.83;2.60;;;;;;;;;;5134780;27;20404;-60
2023/08/19 14:29:37;;;;;;;7.50;3.00;;;;;;;;;;5134485;27;20047;-60
2023/08/19 14:32:04;;;;;;;3.88;2.78;;;;;;;;;;5134459;27;20408;-60
2023/08/19 14:34:31;;;;;;;4.25;2.88;;;;;;;;;;5134406;27;20055;-60
2023/08/19 14:36:58;;;;;;;5.90;3.13;;;;;;;;;;5134029;27;20518;-60
2023/08/19 14:39:25;;;;;;;5.50;2.58;;;;;;;;;;5134045;27;20063;-60
2023/08/19 14:41:52;;;;;;;4.25;3.10;;;;;;;;;;5134313;27;20047;-60
2023/08/19 14:44:18;;;;;;;3.45;2.53;;;;;;;;;;5134056;27;20062;-60
2023/08/19 14:46:47;;;;;;;5.50;3.33;;;;;;;;;;5133955;27;20405;-60
2023/08/19 14:49:13;;;;;;;4.75;3.08;;;;;;;;;;5133977;27;20047;-60
2023/08/19 14:51:40;;;;;;;4.55;2.70;;;;;;;;;;5133781;27;20071;-59
2023/08/19 14:54:07;;;;;;;4.40;3.13;;;;;;;;;;5133755;27;20050;-59
2023/08/19 14:56:34;;;;;;;3.30;2.53;;;;;;;;;;5134077;27;20058;-59
2023/08/19 14:59:01;;;;;;;4.90;3.42;;;;;;;;;;5133806;27;20051;-60